sensor_id;sensor_type;location;lat;lon;timestamp;temperature;humidity
43627;DHT22;29217;52.586;13.442;2024-02-26T02:34:47;0.30;99.90
43627;DHT22;29217;52.586;13.442;2024-02-26T02:37:13;0.00;99.90
43627;DHT22;29217;52.586;13.442;2024-02-26T02:39:39;-0.10;99.90
43627;DHT22;29217;52.586;13.442;2024-02-26T02:42:05;-0.20;99.90
43627;DHT22;29217;52.586;13.442;2024-02-26T02:44:30;-0.10;99.90
43627;DHT22;29217;52.586;13.442;2024-02-26T02:46:56;-0.30;99.90
43627;DHT22;29217;52.586;13.442;2024-02-26T02:49:21;-0.20;99.90
43627;DHT22;29217;52.586;13.442;2024-02-26T02:51:49;-0.30;99.90
43627;DHT22;29217;52.586;13.442;2024-02-26T02:54:14;-0.50;99.90
43627;DHT22;29217;52.586;13.442;2024-02-26T02:56:40;-0.30;99.90
43627;DHT22;29217;52.586;13.442;2024-02-26T02:59:05;-0.40;99.90
43627;DHT22;29217;52.586;13.442;2024-02-26T03:01:31;-0.40;99.90
43627;DHT22;29217;52.586;13.442;2024-02-26T03:03:56;-0.70;99.90
43627;DHT22;29217;52.586;13.442;2024-02-26T03:06:22;-0.60;99.90
43627;DHT22;29217;52.586;13.442;2024-02-26T03:08:48;-0.70;99.90
43627;DHT22;29217;52.586;13.442;2024-02-26T03:11:14;-0.60;99.90
43627;DHT22;29217;52.586;13.442;2024-02-26T03:13:40;-0.40;99.90
43627;DHT22;29217;52.586;13.442;2024-02-26T03:16:06;-0.30;99.90
43627;DHT22;29217;52.586;13.442;2024-02-26T03:18:32;-0.50;99.90
43627;DHT22;29217;52.586;13.442;2024-02-26T03:20:58;-0.60;99.90
43627;DHT22;29217;52.586;13.442;2024-02-26T03:23:23;-0.60;99.90
43627;DHT22;29217;52.586;13.442;2024-02-26T03:25:49;-0.80;99.90
43627;DHT22;29217;52.586;13.442;2024-02-26T03:28:15;-0.90;99.90
43627;DHT22;29217;52.586;13.442;2024-02-26T03:30:41;-1.10;99.90
43627;DHT22;29217;52.586;13.442;2024-02-26T03:33:06;-0.80;99.90
43627;DHT22;29217;52.586;13.442;2024-02-26T03:35:32;-0.60;99.90
43627;DHT22;29217;52.586;13.442;2024-02-26T03:37:57;-0.70;99.90
43627;DHT22;29217;52.586;13.442;2024-02-26T03:40:23;-0.70;99.90
43627;DHT22;29217;52.586;13.442;2024-02-26T03:42:49;-0.70;99.90
43627;DHT22;29217;52.586;13.442;2024-02-26T03:45:15;-0.70;99.90
43627;DHT22;29217;52.586;13.442;2024-02-26T03:47:41;-0.60;99.90
43627;DHT22;29217;52.586;13.442;2024-02-26T03:50:07;-0.50;99.90
43627;DHT22;29217;52.586;13.442;2024-02-26T03:52:33;-0.70;99.90
43627;DHT22;29217;52.586;13.442;2024-02-26T03:54:59;-0.90;99.90
43627;DHT22;29217;52.586;13.442;2024-02-26T03:57:25;-0.80;99.90
43627;DHT22;29217;52.586;13.442;2024-02-26T03:59:50;-0.60;99.90
43627;DHT22;29217;52.586;13.442;2024-02-26T04:02:16;-0.60;99.90
43627;DHT22;29217;52.586;13.442;2024-02-26T04:04:42;-0.50;99.90
43627;DHT22;29217;52.586;13.442;2024-02-26T04:07:07;-0.60;99.90
43627;DHT22;29217;52.586;13.442;2024-02-26T04:09:33;-0.60;99.90
43627;DHT22;29217;52.586;13.442;2024-02-26T04:11:59;-0.70;99.90
43627;DHT22;29217;52.586;13.442;2024-02-26T04:14:25;-0.50;99.90
43627;DHT22;29217;52.586;13.442;2024-02-26T04:16:50;-0.50;99.90
43627;DHT22;29217;52.586;13.442;2024-02-26T04:19:17;-0.80;99.90
43627;DHT22;29217;52.586;13.442;2024-02-26T04:21:43;-0.40;99.90
43627;DHT22;29217;52.586;13.442;2024-02-26T04:24:09;-0.40;99.90
43627;DHT22;29217;52.586;13.442;2024-02-26T04:26:34;-0.60;99.90
43627;DHT22;29217;52.586;13.442;2024-02-26T04:29:00;-0.50;99.90
43627;DHT22;29217;52.586;13.442;2024-02-26T04:31:26;-0.40;99.90
43627;DHT22;29217;52.586;13.442;2024-02-26T04:33:52;-0.40;99.90
43627;DHT22;29217;52.586;13.442;2024-02-26T04:36:17;-0.50;99.90
43627;DHT22;29217;52.586;13.442;2024-02-26T04:38:43;-0.50;99.90
43627;DHT22;29217;52.586;13.442;2024-02-26T04:41:09;-0.40;99.90
43627;DHT22;29217;52.586;13.442;2024-02-26T04:43:35;-0.40;99.90
43627;DHT22;29217;52.586;13.442;2024-02-26T04:46:07;-0.60;99.90
43627;DHT22;29217;52.586;13.442;2024-02-26T04:48:34;-0.40;99.90
43627;DHT22;29217;52.586;13.442;2024-02-26T04:50:59;-0.50;99.90
43627;DHT22;29217;52.586;13.442;2024-02-26T04:53:25;-0.70;99.90
43627;DHT22;29217;52.586;13.442;2024-02-26T04:55:51;-0.60;99.90
43627;DHT22;29217;52.586;13.442;2024-02-26T04:58:17;-0.50;99.90
43627;DHT22;29217;52.586;13.442;2024-02-26T05:00:43;-0.50;99.90
43627;DHT22;29217;52.586;13.442;2024-02-26T05:03:08;-0.40;99.90
43627;DHT22;29217;52.586;13.442;2024-02-26T05:05:38;-0.40;99.90
43627;DHT22;29217;52.586;13.442;2024-02-26T05:08:04;-0.60;99.90
43627;DHT22;29217;52.586;13.442;2024-02-26T05:10:30;-0.60;99.90
43627;DHT22;29217;52.586;13.442;2024-02-26T05:12:55;-0.50;99.90
43627;DHT22;29217;52.586;13.442;2024-02-26T05:15:21;-0.40;99.90
43627;DHT22;29217;52.586;13.442;2024-02-26T05:17:46;-0.40;99.90
43627;DHT22;29217;52.586;13.442;2024-02-26T05:20:12;-0.40;99.90
43627;DHT22;29217;52.586;13.442;2024-02-26T05:22:38;-0.50;99.90
43627;DHT22;29217;52.586;13.442;2024-02-26T05:25:04;-0.50;99.90
43627;DHT22;29217;52.586;13.442;2024-02-26T05:27:29;-0.60;99.90
43627;DHT22;29217;52.586;13.442;2024-02-26T05:29:55;-0.50;99.90
43627;DHT22;29217;52.586;13.442;2024-02-26T05:32:20;-0.60;99.90
43627;DHT22;29217;52.586;13.442;2024-02-26T05:34:46;-0.50;99.90
43627;DHT22;29217;52.586;13.442;2024-02-26T05:37:11;-0.40;99.90
43627;DHT22;29217;52.586;13.442;2024-02-26T05:39:37;-0.50;99.90
43627;DHT22;29217;52.586;13.442;2024-02-26T05:42:03;-0.60;99.90
43627;DHT22;29217;52.586;13.442;2024-02-26T05:44:29;-0.60;99.90
43627;DHT22;29217;52.586;13.442;2024-02-26T05:46:54;-0.50;99.90
43627;DHT22;29217;52.586;13.442;2024-02-26T05:49:20;-0.60;99.90
43627;DHT22;29217;52.586;13.442;2024-02-26T05:51:46;-0.60;99.90
43627;DHT22;29217;52.586;13.442;2024-02-26T05:54:12;-0.60;99.90
43627;DHT22;29217;52.586;13.442;2024-02-26T05:56:38;-0.70;99.90
43627;DHT22;29217;52.586;13.442;2024-02-26T05:59:04;-0.60;99.90
43627;DHT22;29217;52.586;13.442;2024-02-26T06:01:30;-0.50;99.90
43627;DHT22;29217;52.586;13.442;2024-02-26T06:03:55;-0.50;99.90
43627;DHT22;29217;52.586;13.442;2024-02-26T06:06:21;-0.60;99.90
43627;DHT22;29217;52.586;13.442;2024-02-26T06:08:48;-0.40;99.90
43627;DHT22;29217;52.586;13.442;2024-02-26T06:11:14;-0.70;99.90
43627;DHT22;29217;52.586;13.442;2024-02-26T06:13:40;-0.60;99.90
43627;DHT22;29217;52.586;13.442;2024-02-26T06:16:07;-0.70;99.90
43627;DHT22;29217;52.586;13.442;2024-02-26T06:18:33;-0.60;99.90
43627;DHT22;29217;52.586;13.442;2024-02-26T06:20:58;-0.60;99.90
43627;DHT22;29217;52.586;13.442;2024-02-26T06:23:24;-0.60;99.90
43627;DHT22;29217;52.586;13.442;2024-02-26T06:25:51;-0.60;99.90
43627;DHT22;29217;52.586;13.442;2024-02-26T06:28:17;-0.50;99.90
43627;DHT22;29217;52.586;13.442;2024-02-26T06:30:42;-0.40;99.90
43627;DHT22;29217;52.586;13.442;2024-02-26T06:33:08;-0.30;99.90
43627;DHT22;29217;52.586;13.442;2024-02-26T06:35:33;-0.40;99.90
43627;DHT22;29217;52.586;13.442;2024-02-26T06:37:59;-0.30;99.90
43627;DHT22;29217;52.586;13.442;2024-02-26T06:40:25;-0.40;99.90
43627;DHT22;29217;52.586;13.442;2024-02-26T06:42:51;-0.30;99.90
43627;DHT22;29217;52.586;13.442;2024-02-26T06:45:17;-0.20;99.90
43627;DHT22;29217;52.586;13.442;2024-02-26T06:47:43;-0.20;99.90
43627;DHT22;29217;52.586;13.442;2024-02-26T06:50:11;-0.20;99.90
43627;DHT22;29217;52.586;13.442;2024-02-26T06:52:37;-0.10;99.90
43627;DHT22;29217;52.586;13.442;2024-02-26T06:55:02;0.00;99.90
43627;DHT22;29217;52.586;13.442;2024-02-26T06:57:28;0.00;99.90
43627;DHT22;29217;52.586;13.442;2024-02-26T06:59:53;0.40;99.90
43627;DHT22;29217;52.586;13.442;2024-02-26T07:02:19;0.30;99.90
43627;DHT22;29217;52.586;13.442;2024-02-26T07:04:45;0.50;99.90
43627;DHT22;29217;52.586;13.442;2024-02-26T07:07:10;0.60;99.90
43627;DHT22;29217;52.586;13.442;2024-02-26T07:09:36;0.90;99.90
43627;DHT22;29217;52.586;13.442;2024-02-26T07:12:01;0.70;99.90
43627;DHT22;29217;52.586;13.442;2024-02-26T07:14:28;1.00;99.90
43627;DHT22;29217;52.586;13.442;2024-02-26T07:16:53;0.90;99.90
43627;DHT22;29217;52.586;13.442;2024-02-26T07:19:19;1.00;99.90
43627;DHT22;29217;52.586;13.442;2024-02-26T07:21:44;1.10;99.90
43627;DHT22;29217;52.586;13.442;2024-02-26T07:24:10;1.40;99.90
43627;DHT22;29217;52.586;13.442;2024-02-26T07:26:36;1.40;99.90
43627;DHT22;29217;52.586;13.442;2024-02-26T07:29:01;1.50;99.90
43627;DHT22;29217;52.586;13.442;2024-02-26T07:31:27;1.60;99.90
43627;DHT22;29217;52.586;13.442;2024-02-26T07:33:52;1.70;99.90
43627;DHT22;29217;52.586;13.442;2024-02-26T07:36:18;1.80;99.90
43627;DHT22;29217;52.586;13.442;2024-02-26T07:38:44;2.00;99.90
43627;DHT22;29217;52.586;13.442;2024-02-26T07:41:10;2.00;99.90
43627;DHT22;29217;52.586;13.442;2024-02-26T07:43:36;2.20;99.90
43627;DHT22;29217;52.586;13.442;2024-02-26T07:46:02;2.60;99.90
43627;DHT22;29217;52.586;13.442;2024-02-26T07:48:28;2.50;99.90
43627;DHT22;29217;52.586;13.442;2024-02-26T07:50:53;2.50;99.90
43627;DHT22;29217;52.586;13.442;2024-02-26T07:53:19;2.90;99.90
43627;DHT22;29217;52.586;13.442;2024-02-26T07:55:44;3.00;99.90
43627;DHT22;29217;52.586;13.442;2024-02-26T07:58:10;3.00;99.90
43627;DHT22;29217;52.586;13.442;2024-02-26T08:00:35;3.10;99.90
43627;DHT22;29217;52.586;13.442;2024-02-26T08:03:01;3.20;99.90
43627;DHT22;29217;52.586;13.442;2024-02-26T08:05:27;3.50;99.90
43627;DHT22;29217;52.586;13.442;2024-02-26T08:07:52;3.60;99.90
43627;DHT22;29217;52.586;13.442;2024-02-26T08:10:20;3.70;99.90
43627;DHT22;29217;52.586;13.442;2024-02-26T08:12:45;3.80;99.90
43627;DHT22;29217;52.586;13.442;2024-02-26T08:15:11;3.80;99.90
43627;DHT22;29217;52.586;13.442;2024-02-26T08:17:37;4.00;99.90
43627;DHT22;29217;52.586;13.442;2024-02-26T08:20:04;4.10;99.90
43627;DHT22;29217;52.586;13.442;2024-02-26T08:22:29;4.10;99.90
43627;DHT22;29217;52.586;13.442;2024-02-26T08:24:55;4.30;99.90
43627;DHT22;29217;52.586;13.442;2024-02-26T08:27:21;4.30;99.90
43627;DHT22;29217;52.586;13.442;2024-02-26T08:29:46;4.60;99.90
43627;DHT22;29217;52.586;13.442;2024-02-26T08:32:12;4.50;99.90
43627;DHT22;29217;52.586;13.442;2024-02-26T08:34:37;4.30;99.90
43627;DHT22;29217;52.586;13.442;2024-02-26T08:37:03;4.50;99.90
43627;DHT22;29217;52.586;13.442;2024-02-26T08:39:29;4.60;99.90
43627;DHT22;29217;52.586;13.442;2024-02-26T08:41:54;4.80;99.90
43627;DHT22;29217;52.586;13.442;2024-02-26T08:44:20;5.10;99.90
43627;DHT22;29217;52.586;13.442;2024-02-26T08:46:45;5.00;99.90
43627;DHT22;29217;52.586;13.442;2024-02-26T08:49:11;5.10;99.90
43627;DHT22;29217;52.586;13.442;2024-02-26T08:51:42;5.00;99.90
43627;DHT22;29217;52.586;13.442;2024-02-26T08:54:08;5.30;99.90
43627;DHT22;29217;52.586;13.442;2024-02-26T08:56:34;5.80;99.90
43627;DHT22;29217;52.586;13.442;2024-02-26T08:58:59;5.60;99.90
43627;DHT22;29217;52.586;13.442;2024-02-26T09:01:32;5.70;99.90
43627;DHT22;29217;52.586;13.442;2024-02-26T09:03:58;6.00;99.90
43627;DHT22;29217;52.586;13.442;2024-02-26T09:06:23;6.20;99.90
43627;DHT22;29217;52.586;13.442;2024-02-26T09:08:49;6.40;99.90
43627;DHT22;29217;52.586;13.442;2024-02-26T09:11:14;6.30;99.90
43627;DHT22;29217;52.586;13.442;2024-02-26T09:13:40;6.60;99.90
43627;DHT22;29217;52.586;13.442;2024-02-26T09:16:06;6.50;99.90
43627;DHT22;29217;52.586;13.442;2024-02-26T09:18:32;6.80;99.90
43627;DHT22;29217;52.586;13.442;2024-02-26T09:20:57;6.70;99.90
43627;DHT22;29217;52.586;13.442;2024-02-26T09:23:23;6.80;99.90
43627;DHT22;29217;52.586;13.442;2024-02-26T09:25:48;7.10;99.90
43627;DHT22;29217;52.586;13.442;2024-02-26T09:28:14;7.20;99.90
43627;DHT22;29217;52.586;13.442;2024-02-26T09:30:45;7.10;99.90
43627;DHT22;29217;52.586;13.442;2024-02-26T09:33:10;7.40;99.90
43627;DHT22;29217;52.586;13.442;2024-02-26T09:35:37;7.30;99.90
43627;DHT22;29217;52.586;13.442;2024-02-26T09:38:02;7.30;99.90
43627;DHT22;29217;52.586;13.442;2024-02-26T09:40:28;7.40;99.90
43627;DHT22;29217;52.586;13.442;2024-02-26T09:42:59;7.60;99.90
43627;DHT22;29217;52.586;13.442;2024-02-26T09:45:28;7.80;99.90
43627;DHT22;29217;52.586;13.442;2024-02-26T09:47:55;7.70;99.90
43627;DHT22;29217;52.586;13.442;2024-02-26T09:50:22;7.70;99.90
43627;DHT22;29217;52.586;13.442;2024-02-26T09:52:51;7.80;99.90
43627;DHT22;29217;52.586;13.442;2024-02-26T09:55:17;7.90;99.90
43627;DHT22;29217;52.586;13.442;2024-02-26T09:57:46;7.90;99.90
43627;DHT22;29217;52.586;13.442;2024-02-26T10:00:17;8.10;99.90
43627;DHT22;29217;52.586;13.442;2024-02-26T10:02:46;7.90;99.90
43627;DHT22;29217;52.586;13.442;2024-02-26T10:05:16;8.20;99.90
43627;DHT22;29217;52.586;13.442;2024-02-26T10:07:44;8.10;99.90
43627;DHT22;29217;52.586;13.442;2024-02-26T10:10:11;8.30;99.90
43627;DHT22;29217;52.586;13.442;2024-02-26T10:12:36;8.70;99.90
43627;DHT22;29217;52.586;13.442;2024-02-26T10:15:02;8.80;99.90
43627;DHT22;29217;52.586;13.442;2024-02-26T10:17:28;8.60;99.90
43627;DHT22;29217;52.586;13.442;2024-02-26T10:19:54;8.90;99.90
43627;DHT22;29217;52.586;13.442;2024-02-26T10:22:22;8.90;99.90
43627;DHT22;29217;52.586;13.442;2024-02-26T10:24:48;8.90;99.90
43627;DHT22;29217;52.586;13.442;2024-02-26T10:27:14;9.10;99.90
43627;DHT22;29217;52.586;13.442;2024-02-26T10:29:40;9.10;99.90
43627;DHT22;29217;52.586;13.442;2024-02-26T10:32:08;9.20;99.90
43627;DHT22;29217;52.586;13.442;2024-02-26T10:34:35;9.50;99.90
43627;DHT22;29217;52.586;13.442;2024-02-26T10:37:03;9.50;99.90
43627;DHT22;29217;52.586;13.442;2024-02-26T10:39:30;9.50;99.90
43627;DHT22;29217;52.586;13.442;2024-02-26T10:41:55;9.70;99.90
43627;DHT22;29217;52.586;13.442;2024-02-26T10:44:21;9.60;99.90
43627;DHT22;29217;52.586;13.442;2024-02-26T10:46:47;9.70;99.90
43627;DHT22;29217;52.586;13.442;2024-02-26T10:49:15;9.80;99.90
43627;DHT22;29217;52.586;13.442;2024-02-26T10:51:44;9.80;99.90
43627;DHT22;29217;52.586;13.442;2024-02-26T10:54:15;9.90;99.90
43627;DHT22;29217;52.586;13.442;2024-02-26T10:56:42;9.90;99.90
43627;DHT22;29217;52.586;13.442;2024-02-26T10:59:10;9.90;99.90
43627;DHT22;29217;52.586;13.442;2024-02-26T11:01:36;10.00;99.90
43627;DHT22;29217;52.586;13.442;2024-02-26T11:04:06;10.10;99.90
43627;DHT22;29217;52.586;13.442;2024-02-26T11:06:33;10.10;99.90
43627;DHT22;29217;52.586;13.442;2024-02-26T11:09:01;10.20;99.90
43627;DHT22;29217;52.586;13.442;2024-02-26T11:11:28;10.00;99.90
43627;DHT22;29217;52.586;13.442;2024-02-26T11:13:56;10.20;99.90
43627;DHT22;29217;52.586;13.442;2024-02-26T11:16:23;10.20;99.90
43627;DHT22;29217;52.586;13.442;2024-02-26T11:18:52;10.20;99.90
43627;DHT22;29217;52.586;13.442;2024-02-26T11:21:21;10.30;99.90
43627;DHT22;29217;52.586;13.442;2024-02-26T11:23:53;10.50;99.90
43627;DHT22;29217;52.586;13.442;2024-02-26T11:26:19;10.40;99.90
43627;DHT22;29217;52.586;13.442;2024-02-26T11:28:45;10.40;99.90
43627;DHT22;29217;52.586;13.442;2024-02-26T11:31:12;10.50;99.90
43627;DHT22;29217;52.586;13.442;2024-02-26T11:33:39;10.60;99.90
43627;DHT22;29217;52.586;13.442;2024-02-26T11:36:09;10.50;99.90
43627;DHT22;29217;52.586;13.442;2024-02-26T11:38:36;10.60;99.90
43627;DHT22;29217;52.586;13.442;2024-02-26T11:41:01;10.70;99.90
43627;DHT22;29217;52.586;13.442;2024-02-26T11:43:52;10.60;99.90
43627;DHT22;29217;52.586;13.442;2024-02-26T11:46:30;10.60;99.90
43627;DHT22;29217;52.586;13.442;2024-02-26T11:49:01;10.60;99.90
43627;DHT22;29217;52.586;13.442;2024-02-26T11:51:31;10.60;99.90
43627;DHT22;29217;52.586;13.442;2024-02-26T11:53:57;10.70;99.90
43627;DHT22;29217;52.586;13.442;2024-02-26T11:56:24;10.70;99.90
43627;DHT22;29217;52.586;13.442;2024-02-26T11:59:04;10.90;99.90
43627;DHT22;29217;52.586;13.442;2024-02-26T12:01:41;10.80;99.90
43627;DHT22;29217;52.586;13.442;2024-02-26T12:04:27;10.80;99.90
43627;DHT22;29217;52.586;13.442;2024-02-26T12:07:00;11.00;99.90
43627;DHT22;29217;52.586;13.442;2024-02-26T12:09:32;11.30;99.90
43627;DHT22;29217;52.586;13.442;2024-02-26T12:11:58;11.10;99.90
43627;DHT22;29217;52.586;13.442;2024-02-26T12:14:27;11.50;99.90
43627;DHT22;29217;52.586;13.442;2024-02-26T12:16:53;11.50;99.90
43627;DHT22;29217;52.586;13.442;2024-02-26T12:19:21;11.60;99.90
43627;DHT22;29217;52.586;13.442;2024-02-26T12:21:51;11.90;99.90
43627;DHT22;29217;52.586;13.442;2024-02-26T12:24:18;11.90;99.90
43627;DHT22;29217;52.586;13.442;2024-02-26T12:26:45;12.00;99.90
43627;DHT22;29217;52.586;13.442;2024-02-26T12:29:11;12.00;99.90
43627;DHT22;29217;52.586;13.442;2024-02-26T12:31:37;12.20;99.90
43627;DHT22;29217;52.586;13.442;2024-02-26T18:30:49;8.40;99.90
43627;DHT22;29217;52.586;13.442;2024-02-26T18:33:15;8.30;99.90
43627;DHT22;29217;52.586;13.442;2024-02-26T18:35:41;8.50;99.90
43627;DHT22;29217;52.586;13.442;2024-02-26T18:38:06;8.40;99.90
43627;DHT22;29217;52.586;13.442;2024-02-26T18:40:32;8.50;99.90
43627;DHT22;29217;52.586;13.442;2024-02-26T18:42:58;8.30;99.90
43627;DHT22;29217;52.586;13.442;2024-02-26T18:45:24;8.20;99.90
43627;DHT22;29217;52.586;13.442;2024-02-26T18:47:50;8.20;99.90
43627;DHT22;29217;52.586;13.442;2024-02-26T18:50:16;8.20;99.90
43627;DHT22;29217;52.586;13.442;2024-02-26T18:52:41;8.20;99.90
43627;DHT22;29217;52.586;13.442;2024-02-26T18:55:07;8.10;99.90
43627;DHT22;29217;52.586;13.442;2024-02-26T18:57:33;8.10;99.90
43627;DHT22;29217;52.586;13.442;2024-02-26T19:07:19;8.00;99.90
43627;DHT22;29217;52.586;13.442;2024-02-26T19:09:45;8.00;99.90
43627;DHT22;29217;52.586;13.442;2024-02-26T19:12:11;7.90;99.90
43627;DHT22;29217;52.586;13.442;2024-02-26T19:17:03;7.90;99.90
43627;DHT22;29217;52.586;13.442;2024-02-26T19:19:29;7.90;99.90
43627;DHT22;29217;52.586;13.442;2024-02-26T19:21:55;8.00;99.90
43627;DHT22;29217;52.586;13.442;2024-02-26T19:24:23;8.00;99.90
43627;DHT22;29217;52.586;13.442;2024-02-26T19:26:48;8.00;99.90
43627;DHT22;29217;52.586;13.442;2024-02-26T19:31:40;7.40;99.90
43627;DHT22;29217;52.586;13.442;2024-02-26T19:36:32;8.70;99.90
43627;DHT22;29217;52.586;13.442;2024-02-26T19:43:49;7.70;99.90
43627;DHT22;29217;52.586;13.442;2024-02-26T19:46:15;7.60;99.90
43627;DHT22;29217;52.586;13.442;2024-02-26T19:48:41;7.80;99.90
43627;DHT22;29217;52.586;13.442;2024-02-26T19:51:07;7.60;99.90
43627;DHT22;29217;52.586;13.442;2024-02-26T20:20:20;7.20;99.90
43627;DHT22;29217;52.586;13.442;2024-02-26T20:22:51;7.30;99.90
43627;DHT22;29217;52.586;13.442;2024-02-26T20:25:17;7.50;99.90
43627;DHT22;29217;52.586;13.442;2024-02-26T20:27:42;7.40;99.90
43627;DHT22;29217;52.586;13.442;2024-02-26T20:30:08;7.10;99.90
43627;DHT22;29217;52.586;13.442;2024-02-26T20:32:34;7.10;99.90
43627;DHT22;29217;52.586;13.442;2024-02-26T20:35:00;7.00;99.90
43627;DHT22;29217;52.586;13.442;2024-02-26T20:37:26;6.80;99.90
43627;DHT22;29217;52.586;13.442;2024-02-26T20:39:52;6.90;99.90
43627;DHT22;29217;52.586;13.442;2024-02-26T20:42:17;6.90;99.90
